Shaver Lake, California
Current Conditions -  °F | °C
As of 5:53 PM on Sunday 21 Dec 2014 (Local Time) from KFAT Reporting Station
Haze Haze  
Wind Chill: 57°   Ceiling: 1600
Heat Index: 57°   Visibility: 6mi
Dew Point: 53°   Wind: 7mph
Humidity: 87%   Direction: 130°SE
Pressure: 30.25"   Gusts: NA
Location:  37.1°N, 119.31°W
Report Text: KFAT 220153Z 13006KT 6SM BR BKN016 OVC020 14/12 A3025 RMK AO2 SLP242 TOVC035 T01390117
Loading
Personal Weather Stations






























Interactive Weather Map New forecast layout! Learn more

10-Day Weather Forecast

Advertisements
Track Severe Weather on mobile